sensor_id;sensor_type;location;lat;lon;timestamp;temperature;humidity
48515;DHT22;34309;47.260;2.796;2022-07-29T00:00:43;25.10;26.90
48515;DHT22;34309;47.260;2.796;2022-07-29T00:03:13;25.20;26.90
48515;DHT22;34309;47.260;2.796;2022-07-29T00:05:40;25.20;26.80
48515;DHT22;34309;47.260;2.796;2022-07-29T00:08:06;25.10;26.90
48515;DHT22;34309;47.260;2.796;2022-07-29T00:10:32;25.10;27.00
48515;DHT22;34309;47.260;2.796;2022-07-29T00:12:58;25.10;26.90
48515;DHT22;34309;47.260;2.796;2022-07-29T00:15:24;25.10;27.00
48515;DHT22;34309;47.260;2.796;2022-07-29T00:17:50;25.10;26.80
48515;DHT22;34309;47.260;2.796;2022-07-29T00:20:15;25.10;26.80
48515;DHT22;34309;47.260;2.796;2022-07-29T00:22:41;25.10;26.90
48515;DHT22;34309;47.260;2.796;2022-07-29T00:25:08;25.10;26.80
48515;DHT22;34309;47.260;2.796;2022-07-29T00:27:35;25.10;26.80
48515;DHT22;34309;47.260;2.796;2022-07-29T00:30:01;25.10;26.80
48515;DHT22;34309;47.260;2.796;2022-07-29T00:32:27;25.10;26.80
48515;DHT22;34309;47.260;2.796;2022-07-29T00:34:53;25.10;26.80
48515;DHT22;34309;47.260;2.796;2022-07-29T00:37:37;25.10;26.70
48515;DHT22;34309;47.260;2.796;2022-07-29T00:40:03;25.10;26.80
48515;DHT22;34309;47.260;2.796;2022-07-29T00:42:29;25.10;26.80
48515;DHT22;34309;47.260;2.796;2022-07-29T00:44:55;25.10;26.70
48515;DHT22;34309;47.260;2.796;2022-07-29T00:47:21;25.10;26.80
48515;DHT22;34309;47.260;2.796;2022-07-29T00:49:46;25.10;26.80
48515;DHT22;34309;47.260;2.796;2022-07-29T00:52:12;25.10;26.90
48515;DHT22;34309;47.260;2.796;2022-07-29T00:54:39;25.10;26.80
48515;DHT22;34309;47.260;2.796;2022-07-29T00:57:07;25.10;26.70
48515;DHT22;34309;47.260;2.796;2022-07-29T00:59:33;25.10;26.90
48515;DHT22;34309;47.260;2.796;2022-07-29T01:01:59;25.10;26.80
48515;DHT22;34309;47.260;2.796;2022-07-29T01:04:25;25.10;26.90
48515;DHT22;34309;47.260;2.796;2022-07-29T01:06:51;25.10;26.80
48515;DHT22;34309;47.260;2.796;2022-07-29T01:09:19;25.10;26.90
48515;DHT22;34309;47.260;2.796;2022-07-29T01:11:46;25.10;26.90
48515;DHT22;34309;47.260;2.796;2022-07-29T01:14:16;25.10;26.80
48515;DHT22;34309;47.260;2.796;2022-07-29T01:25:32;25.10;26.80
48515;DHT22;34309;47.260;2.796;2022-07-29T01:31:05;25.00;26.60
48515;DHT22;34309;47.260;2.796;2022-07-29T01:33:40;25.00;26.80
48515;DHT22;34309;47.260;2.796;2022-07-29T01:36:23;25.00;26.80
48515;DHT22;34309;47.260;2.796;2022-07-29T01:39:01;25.00;26.70
48515;DHT22;34309;47.260;2.796;2022-07-29T01:41:31;25.10;26.80
48515;DHT22;34309;47.260;2.796;2022-07-29T01:44:01;25.00;26.90
48515;DHT22;34309;47.260;2.796;2022-07-29T01:46:40;25.00;26.70
48515;DHT22;34309;47.260;2.796;2022-07-29T01:49:25;25.10;27.00
48515;DHT22;34309;47.260;2.796;2022-07-29T01:52:52;25.00;26.90
48515;DHT22;34309;47.260;2.796;2022-07-29T01:54:59;25.10;26.90
48515;DHT22;34309;47.260;2.796;2022-07-29T01:57:29;25.00;26.80
48515;DHT22;34309;47.260;2.796;2022-07-29T01:59:57;25.00;27.00
48515;DHT22;34309;47.260;2.796;2022-07-29T02:02:26;25.00;27.10
48515;DHT22;34309;47.260;2.796;2022-07-29T02:04:54;25.00;26.90
48515;DHT22;34309;47.260;2.796;2022-07-29T02:07:23;25.00;26.90
48515;DHT22;34309;47.260;2.796;2022-07-29T02:09:53;25.00;26.90
48515;DHT22;34309;47.260;2.796;2022-07-29T02:12:19;25.00;27.00
48515;DHT22;34309;47.260;2.796;2022-07-29T02:14:49;25.00;26.90
48515;DHT22;34309;47.260;2.796;2022-07-29T02:17:27;25.00;26.90
48515;DHT22;34309;47.260;2.796;2022-07-29T02:19:59;25.00;26.80
48515;DHT22;34309;47.260;2.796;2022-07-29T02:22:28;25.00;26.90
48515;DHT22;34309;47.260;2.796;2022-07-29T02:24:55;25.00;26.80
48515;DHT22;34309;47.260;2.796;2022-07-29T02:27:22;25.00;27.00
48515;DHT22;34309;47.260;2.796;2022-07-29T02:29:50;25.00;27.00
48515;DHT22;34309;47.260;2.796;2022-07-29T02:32:17;25.00;26.80
48515;DHT22;34309;47.260;2.796;2022-07-29T02:34:45;25.00;26.80
48515;DHT22;34309;47.260;2.796;2022-07-29T02:37:12;25.00;26.90
48515;DHT22;34309;47.260;2.796;2022-07-29T02:39:40;25.00;27.00
48515;DHT22;34309;47.260;2.796;2022-07-29T02:42:11;25.00;26.90
48515;DHT22;34309;47.260;2.796;2022-07-29T02:44:38;25.00;26.90
48515;DHT22;34309;47.260;2.796;2022-07-29T02:47:07;25.00;27.00
48515;DHT22;34309;47.260;2.796;2022-07-29T02:52:12;24.90;26.80
48515;DHT22;34309;47.260;2.796;2022-07-29T02:54:55;24.90;26.80
48515;DHT22;34309;47.260;2.796;2022-07-29T02:57:42;24.90;26.80
48515;DHT22;34309;47.260;2.796;2022-07-29T03:00:09;24.90;26.70
48515;DHT22;34309;47.260;2.796;2022-07-29T03:02:39;24.90;26.90
48515;DHT22;34309;47.260;2.796;2022-07-29T03:05:09;24.90;26.90
48515;DHT22;34309;47.260;2.796;2022-07-29T03:07:37;24.90;26.80
48515;DHT22;34309;47.260;2.796;2022-07-29T03:10:04;24.90;26.90
48515;DHT22;34309;47.260;2.796;2022-07-29T03:12:30;24.90;26.80
48515;DHT22;34309;47.260;2.796;2022-07-29T03:14:56;24.90;26.90
48515;DHT22;34309;47.260;2.796;2022-07-29T03:17:23;24.90;27.00
48515;DHT22;34309;47.260;2.796;2022-07-29T03:19:49;24.90;26.70
48515;DHT22;34309;47.260;2.796;2022-07-29T03:22:15;24.90;27.00
48515;DHT22;34309;47.260;2.796;2022-07-29T03:24:41;24.90;27.00
48515;DHT22;34309;47.260;2.796;2022-07-29T03:27:07;24.90;27.00
48515;DHT22;34309;47.260;2.796;2022-07-29T03:29:32;24.90;27.00
48515;DHT22;34309;47.260;2.796;2022-07-29T03:31:58;24.90;27.00
48515;DHT22;34309;47.260;2.796;2022-07-29T03:34:24;24.90;27.00
48515;DHT22;34309;47.260;2.796;2022-07-29T03:36:50;24.90;26.90
48515;DHT22;34309;47.260;2.796;2022-07-29T03:39:20;24.90;26.90
48515;DHT22;34309;47.260;2.796;2022-07-29T03:41:49;24.90;27.00
48515;DHT22;34309;47.260;2.796;2022-07-29T03:44:18;24.90;26.90
48515;DHT22;34309;47.260;2.796;2022-07-29T03:46:45;24.90;27.10
48515;DHT22;34309;47.260;2.796;2022-07-29T03:49:15;24.90;26.90
48515;DHT22;34309;47.260;2.796;2022-07-29T03:51:42;24.90;27.00
48515;DHT22;34309;47.260;2.796;2022-07-29T03:54:08;24.90;27.00
48515;DHT22;34309;47.260;2.796;2022-07-29T03:56:38;24.90;26.90
48515;DHT22;34309;47.260;2.796;2022-07-29T03:59:05;24.90;27.10
48515;DHT22;34309;47.260;2.796;2022-07-29T04:01:33;24.90;27.00
48515;DHT22;34309;47.260;2.796;2022-07-29T04:04:00;24.90;27.00
48515;DHT22;34309;47.260;2.796;2022-07-29T04:06:26;24.90;27.10
48515;DHT22;34309;47.260;2.796;2022-07-29T04:08:52;24.90;27.10
48515;DHT22;34309;47.260;2.796;2022-07-29T04:11:18;24.90;27.00
48515;DHT22;34309;47.260;2.796;2022-07-29T04:13:44;24.90;27.10
48515;DHT22;34309;47.260;2.796;2022-07-29T04:16:09;24.90;27.00
48515;DHT22;34309;47.260;2.796;2022-07-29T04:18:35;24.90;27.10
48515;DHT22;34309;47.260;2.796;2022-07-29T04:21:01;24.90;27.00
48515;DHT22;34309;47.260;2.796;2022-07-29T04:23:29;24.90;27.10
48515;DHT22;34309;47.260;2.796;2022-07-29T04:25:57;24.90;27.10
48515;DHT22;34309;47.260;2.796;2022-07-29T04:28:23;24.90;27.10
48515;DHT22;34309;47.260;2.796;2022-07-29T04:30:49;24.90;27.00
48515;DHT22;34309;47.260;2.796;2022-07-29T04:33:14;24.90;27.20
48515;DHT22;34309;47.260;2.796;2022-07-29T04:35:40;24.80;27.00
48515;DHT22;34309;47.260;2.796;2022-07-29T04:38:06;24.80;26.90
48515;DHT22;34309;47.260;2.796;2022-07-29T04:40:33;24.90;27.20
48515;DHT22;34309;47.260;2.796;2022-07-29T04:43:00;24.80;27.00
48515;DHT22;34309;47.260;2.796;2022-07-29T04:45:26;24.80;26.90
48515;DHT22;34309;47.260;2.796;2022-07-29T04:47:52;24.90;27.00
48515;DHT22;34309;47.260;2.796;2022-07-29T04:50:18;24.80;27.10
48515;DHT22;34309;47.260;2.796;2022-07-29T04:52:43;24.90;27.00
48515;DHT22;34309;47.260;2.796;2022-07-29T04:55:09;24.80;27.00
48515;DHT22;34309;47.260;2.796;2022-07-29T04:57:35;24.90;27.10
48515;DHT22;34309;47.260;2.796;2022-07-29T05:00:01;24.80;27.10
48515;DHT22;34309;47.260;2.796;2022-07-29T05:02:27;24.80;27.00
48515;DHT22;34309;47.260;2.796;2022-07-29T05:04:52;24.80;27.20
48515;DHT22;34309;47.260;2.796;2022-07-29T05:07:18;24.80;27.10
48515;DHT22;34309;47.260;2.796;2022-07-29T05:09:44;24.80;27.20
48515;DHT22;34309;47.260;2.796;2022-07-29T05:12:10;24.80;27.10
48515;DHT22;34309;47.260;2.796;2022-07-29T05:14:36;24.80;27.20
48515;DHT22;34309;47.260;2.796;2022-07-29T05:17:01;24.80;27.20
48515;DHT22;34309;47.260;2.796;2022-07-29T05:19:27;24.80;27.00
48515;DHT22;34309;47.260;2.796;2022-07-29T05:21:53;24.80;27.00
48515;DHT22;34309;47.260;2.796;2022-07-29T05:24:18;24.80;27.30
48515;DHT22;34309;47.260;2.796;2022-07-29T05:26:44;24.80;26.90
48515;DHT22;34309;47.260;2.796;2022-07-29T05:29:10;24.80;27.10
48515;DHT22;34309;47.260;2.796;2022-07-29T05:31:36;24.80;27.10
48515;DHT22;34309;47.260;2.796;2022-07-29T05:34:02;24.80;27.20
48515;DHT22;34309;47.260;2.796;2022-07-29T05:36:28;24.80;27.20
48515;DHT22;34309;47.260;2.796;2022-07-29T05:38:53;24.80;27.20
48515;DHT22;34309;47.260;2.796;2022-07-29T05:41:19;24.80;27.20
48515;DHT22;34309;47.260;2.796;2022-07-29T05:43:45;24.80;27.10
48515;DHT22;34309;47.260;2.796;2022-07-29T05:46:11;24.80;27.00
48515;DHT22;34309;47.260;2.796;2022-07-29T05:48:37;24.70;27.10
48515;DHT22;34309;47.260;2.796;2022-07-29T05:51:03;24.80;27.00
48515;DHT22;34309;47.260;2.796;2022-07-29T05:53:28;24.70;27.10
48515;DHT22;34309;47.260;2.796;2022-07-29T05:55:54;24.80;27.20
48515;DHT22;34309;47.260;2.796;2022-07-29T05:58:20;24.70;27.20
48515;DHT22;34309;47.260;2.796;2022-07-29T06:00:46;24.70;27.20
48515;DHT22;34309;47.260;2.796;2022-07-29T06:03:12;24.70;27.10
48515;DHT22;34309;47.260;2.796;2022-07-29T06:05:39;24.80;27.20
48515;DHT22;34309;47.260;2.796;2022-07-29T06:08:05;24.70;27.00
48515;DHT22;34309;47.260;2.796;2022-07-29T06:10:36;24.80;26.90
48515;DHT22;34309;47.260;2.796;2022-07-29T06:13:02;24.80;27.20
48515;DHT22;34309;47.260;2.796;2022-07-29T06:15:28;24.70;27.20
48515;DHT22;34309;47.260;2.796;2022-07-29T06:17:54;24.70;27.10
48515;DHT22;34309;47.260;2.796;2022-07-29T06:20:19;24.80;27.30
48515;DHT22;34309;47.260;2.796;2022-07-29T06:22:45;24.80;27.30
48515;DHT22;34309;47.260;2.796;2022-07-29T06:25:11;24.80;27.20
48515;DHT22;34309;47.260;2.796;2022-07-29T06:27:37;24.80;27.20
48515;DHT22;34309;47.260;2.796;2022-07-29T06:30:03;24.70;27.20
48515;DHT22;34309;47.260;2.796;2022-07-29T06:32:32;24.80;27.20
48515;DHT22;34309;47.260;2.796;2022-07-29T06:34:58;24.80;27.20
48515;DHT22;34309;47.260;2.796;2022-07-29T06:37:23;24.80;27.20
48515;DHT22;34309;47.260;2.796;2022-07-29T06:39:49;24.80;27.40
48515;DHT22;34309;47.260;2.796;2022-07-29T06:42:35;24.70;27.40
48515;DHT22;34309;47.260;2.796;2022-07-29T06:45:00;24.70;27.20
48515;DHT22;34309;47.260;2.796;2022-07-29T06:47:26;24.80;27.20
48515;DHT22;34309;47.260;2.796;2022-07-29T06:49:52;24.70;27.20
48515;DHT22;34309;47.260;2.796;2022-07-29T06:52:18;24.70;27.20
48515;DHT22;34309;47.260;2.796;2022-07-29T06:54:44;24.70;27.40
48515;DHT22;34309;47.260;2.796;2022-07-29T06:57:13;24.70;27.40
48515;DHT22;34309;47.260;2.796;2022-07-29T06:59:39;24.70;27.40
48515;DHT22;34309;47.260;2.796;2022-07-29T07:02:05;24.70;27.40
48515;DHT22;34309;47.260;2.796;2022-07-29T07:04:31;24.60;27.30
48515;DHT22;34309;47.260;2.796;2022-07-29T07:06:57;24.70;27.40
48515;DHT22;34309;47.260;2.796;2022-07-29T07:09:23;24.70;27.50
48515;DHT22;34309;47.260;2.796;2022-07-29T07:11:48;24.70;27.50
48515;DHT22;34309;47.260;2.796;2022-07-29T07:14:14;24.70;27.30
48515;DHT22;34309;47.260;2.796;2022-07-29T07:16:40;24.70;27.40
48515;DHT22;34309;47.260;2.796;2022-07-29T07:19:06;24.70;27.40
48515;DHT22;34309;47.260;2.796;2022-07-29T07:21:32;24.70;27.40
48515;DHT22;34309;47.260;2.796;2022-07-29T07:23:59;24.70;27.30
48515;DHT22;34309;47.260;2.796;2022-07-29T07:26:25;24.70;27.50
48515;DHT22;34309;47.260;2.796;2022-07-29T07:28:51;24.70;27.40
48515;DHT22;34309;47.260;2.796;2022-07-29T07:31:17;24.70;27.40
48515;DHT22;34309;47.260;2.796;2022-07-29T07:33:42;25.10;27.80
48515;DHT22;34309;47.260;2.796;2022-07-29T07:36:08;24.70;27.40
48515;DHT22;34309;47.260;2.796;2022-07-29T07:38:34;24.70;27.50
48515;DHT22;34309;47.260;2.796;2022-07-29T07:41:00;24.70;27.60
48515;DHT22;34309;47.260;2.796;2022-07-29T07:43:26;24.70;27.40
48515;DHT22;34309;47.260;2.796;2022-07-29T07:45:52;24.70;27.60
48515;DHT22;34309;47.260;2.796;2022-07-29T07:48:18;24.70;27.50
48515;DHT22;34309;47.260;2.796;2022-07-29T07:50:44;24.70;27.50
48515;DHT22;34309;47.260;2.796;2022-07-29T07:53:09;24.70;27.40
48515;DHT22;34309;47.260;2.796;2022-07-29T07:55:42;24.70;27.50
48515;DHT22;34309;47.260;2.796;2022-07-29T07:58:08;24.70;27.60
48515;DHT22;34309;47.260;2.796;2022-07-29T08:00:34;24.70;27.50
48515;DHT22;34309;47.260;2.796;2022-07-29T08:03:00;24.70;27.70
48515;DHT22;34309;47.260;2.796;2022-07-29T08:05:26;24.70;27.60
48515;DHT22;34309;47.260;2.796;2022-07-29T08:07:52;24.70;27.50
48515;DHT22;34309;47.260;2.796;2022-07-29T08:10:19;24.70;27.70
48515;DHT22;34309;47.260;2.796;2022-07-29T08:13:08;24.70;27.70
48515;DHT22;34309;47.260;2.796;2022-07-29T08:15:34;24.70;27.80
48515;DHT22;34309;47.260;2.796;2022-07-29T08:18:00;24.70;27.90
48515;DHT22;34309;47.260;2.796;2022-07-29T08:20:26;24.70;28.10
48515;DHT22;34309;47.260;2.796;2022-07-29T08:22:52;24.70;28.20
48515;DHT22;34309;47.260;2.796;2022-07-29T08:25:19;24.70;28.40
48515;DHT22;34309;47.260;2.796;2022-07-29T08:27:49;24.70;28.40
48515;DHT22;34309;47.260;2.796;2022-07-29T08:30:14;24.70;28.40
48515;DHT22;34309;47.260;2.796;2022-07-29T08:32:40;24.70;28.40
48515;DHT22;34309;47.260;2.796;2022-07-29T08:35:06;24.70;28.40
48515;DHT22;34309;47.260;2.796;2022-07-29T08:37:32;24.70;28.40
48515;DHT22;34309;47.260;2.796;2022-07-29T08:39:58;24.70;28.40
48515;DHT22;34309;47.260;2.796;2022-07-29T08:42:24;24.70;28.40
48515;DHT22;34309;47.260;2.796;2022-07-29T08:44:50;24.70;28.40
48515;DHT22;34309;47.260;2.796;2022-07-29T08:47:16;24.70;28.40
48515;DHT22;34309;47.260;2.796;2022-07-29T08:49:42;24.70;28.40
48515;DHT22;34309;47.260;2.796;2022-07-29T08:52:11;24.70;28.40
48515;DHT22;34309;47.260;2.796;2022-07-29T08:54:40;24.70;28.40
48515;DHT22;34309;47.260;2.796;2022-07-29T08:57:09;24.70;28.40
48515;DHT22;34309;47.260;2.796;2022-07-29T08:59:40;24.70;28.40
48515;DHT22;34309;47.260;2.796;2022-07-29T09:02:14;24.70;28.40
48515;DHT22;34309;47.260;2.796;2022-07-29T09:04:41;24.70;28.40
48515;DHT22;34309;47.260;2.796;2022-07-29T09:07:08;24.70;28.40
48515;DHT22;34309;47.260;2.796;2022-07-29T09:09:34;24.70;28.40
48515;DHT22;34309;47.260;2.796;2022-07-29T09:12:00;24.70;28.40
48515;DHT22;34309;47.260;2.796;2022-07-29T09:14:26;24.70;28.40
48515;DHT22;34309;47.260;2.796;2022-07-29T09:16:54;24.70;28.50
48515;DHT22;34309;47.260;2.796;2022-07-29T09:21:51;24.70;28.70
48515;DHT22;34309;47.260;2.796;2022-07-29T09:24:23;24.80;28.50
48515;DHT22;34309;47.260;2.796;2022-07-29T09:26:49;24.80;28.50
48515;DHT22;34309;47.260;2.796;2022-07-29T09:31:46;24.70;28.60
48515;DHT22;34309;47.260;2.796;2022-07-29T09:34:15;24.70;28.40
48515;DHT22;34309;47.260;2.796;2022-07-29T09:36:43;24.70;28.70
48515;DHT22;34309;47.260;2.796;2022-07-29T09:39:09;24.80;28.50
48515;DHT22;34309;47.260;2.796;2022-07-29T09:41:53;24.80;28.50
48515;DHT22;34309;47.260;2.796;2022-07-29T09:44:19;24.80;28.60
48515;DHT22;34309;47.260;2.796;2022-07-29T09:46:59;24.80;28.50
48515;DHT22;34309;47.260;2.796;2022-07-29T09:49:32;24.70;28.50
48515;DHT22;34309;47.260;2.796;2022-07-29T09:52:06;24.70;28.40
48515;DHT22;34309;47.260;2.796;2022-07-29T09:54:33;24.80;28.50
48515;DHT22;34309;47.260;2.796;2022-07-29T09:57:07;24.80;28.50
48515;DHT22;34309;47.260;2.796;2022-07-29T09:59:34;24.80;28.50
48515;DHT22;34309;47.260;2.796;2022-07-29T10:02:00;24.80;28.50
48515;DHT22;34309;47.260;2.796;2022-07-29T10:04:41;24.80;28.50
48515;DHT22;34309;47.260;2.796;2022-07-29T10:07:08;24.80;28.50
48515;DHT22;34309;47.260;2.796;2022-07-29T10:09:35;24.80;28.50
48515;DHT22;34309;47.260;2.796;2022-07-29T10:12:12;24.80;28.50
48515;DHT22;34309;47.260;2.796;2022-07-29T10:14:41;24.80;28.50
48515;DHT22;34309;47.260;2.796;2022-07-29T10:17:09;24.80;28.50
48515;DHT22;34309;47.260;2.796;2022-07-29T10:19:37;24.80;28.40
48515;DHT22;34309;47.260;2.796;2022-07-29T10:22:05;24.80;28.50
48515;DHT22;34309;47.260;2.796;2022-07-29T10:24:32;24.80;28.50
48515;DHT22;34309;47.260;2.796;2022-07-29T10:27:00;24.80;28.50
48515;DHT22;34309;47.260;2.796;2022-07-29T10:29:27;24.80;28.50
48515;DHT22;34309;47.260;2.796;2022-07-29T10:33:02;24.80;28.50
48515;DHT22;34309;47.260;2.796;2022-07-29T10:35:15;24.80;28.50
48515;DHT22;34309;47.260;2.796;2022-07-29T10:37:52;24.80;28.40
48515;DHT22;34309;47.260;2.796;2022-07-29T10:40:31;24.80;28.40
48515;DHT22;34309;47.260;2.796;2022-07-29T10:43:28;24.80;28.50
48515;DHT22;34309;47.260;2.796;2022-07-29T10:45:59;24.80;28.50
48515;DHT22;34309;47.260;2.796;2022-07-29T10:48:25;24.80;28.50
48515;DHT22;34309;47.260;2.796;2022-07-29T10:51:01;24.80;28.50
48515;DHT22;34309;47.260;2.796;2022-07-29T10:53:51;24.80;28.50
48515;DHT22;34309;47.260;2.796;2022-07-29T10:56:31;24.80;28.50
48515;DHT22;34309;47.260;2.796;2022-07-29T11:01:50;24.90;28.50
48515;DHT22;34309;47.260;2.796;2022-07-29T11:04:40;24.90;28.50
48515;DHT22;34309;47.260;2.796;2022-07-29T11:09:31;24.80;28.30
48515;DHT22;34309;47.260;2.796;2022-07-29T11:11:57;24.80;28.40
48515;DHT22;34309;47.260;2.796;2022-07-29T11:17:23;24.90;28.20
48515;DHT22;34309;47.260;2.796;2022-07-29T11:19:49;24.90;28.30
48515;DHT22;34309;47.260;2.796;2022-07-29T11:22:34;24.80;28.10
48515;DHT22;34309;47.260;2.796;2022-07-29T11:25:14;24.90;28.20
48515;DHT22;34309;47.260;2.796;2022-07-29T11:27:40;24.80;28.10
48515;DHT22;34309;47.260;2.796;2022-07-29T11:30:06;24.80;28.00
48515;DHT22;34309;47.260;2.796;2022-07-29T11:32:40;24.90;27.80
48515;DHT22;34309;47.260;2.796;2022-07-29T11:35:18;24.90;27.60
48515;DHT22;34309;47.260;2.796;2022-07-29T11:37:46;24.90;27.60
48515;DHT22;34309;47.260;2.796;2022-07-29T11:40:14;24.90;27.60
48515;DHT22;34309;47.260;2.796;2022-07-29T11:42:42;24.90;27.60
48515;DHT22;34309;47.260;2.796;2022-07-29T11:45:23;24.90;27.80
48515;DHT22;34309;47.260;2.796;2022-07-29T11:47:51;24.90;27.80
48515;DHT22;34309;47.260;2.796;2022-07-29T11:52:58;24.90;27.70
48515;DHT22;34309;47.260;2.796;2022-07-29T11:55:24;24.90;27.50
48515;DHT22;34309;47.260;2.796;2022-07-29T11:57:59;24.90;27.40
48515;DHT22;34309;47.260;2.796;2022-07-29T12:00:32;24.90;27.40
48515;DHT22;34309;47.260;2.796;2022-07-29T12:03:00;24.90;27.40
48515;DHT22;34309;47.260;2.796;2022-07-29T12:05:32;24.90;27.40
48515;DHT22;34309;47.260;2.796;2022-07-29T12:08:24;24.90;27.40
48515;DHT22;34309;47.260;2.796;2022-07-29T12:10:52;24.90;27.30
48515;DHT22;34309;47.260;2.796;2022-07-29T12:13:20;24.90;27.20
48515;DHT22;34309;47.260;2.796;2022-07-29T12:15:56;24.90;27.40
48515;DHT22;34309;47.260;2.796;2022-07-29T12:18:22;24.90;27.10
48515;DHT22;34309;47.260;2.796;2022-07-29T12:20:48;24.90;27.00
48515;DHT22;34309;47.260;2.796;2022-07-29T12:23:21;24.90;26.90
48515;DHT22;34309;47.260;2.796;2022-07-29T12:25:47;24.90;27.00
48515;DHT22;34309;47.260;2.796;2022-07-29T12:28:14;24.90;27.10
48515;DHT22;34309;47.260;2.796;2022-07-29T12:30:51;24.90;27.10
48515;DHT22;34309;47.260;2.796;2022-07-29T12:33:25;24.90;27.00
48515;DHT22;34309;47.260;2.796;2022-07-29T12:36:00;24.90;26.80
48515;DHT22;34309;47.260;2.796;2022-07-29T12:38:26;24.90;26.90
48515;DHT22;34309;47.260;2.796;2022-07-29T12:40:53;24.90;27.00
48515;DHT22;34309;47.260;2.796;2022-07-29T12:43:21;24.90;26.80
48515;DHT22;34309;47.260;2.796;2022-07-29T12:45:49;24.90;27.00
48515;DHT22;34309;47.260;2.796;2022-07-29T12:48:16;24.90;27.00
48515;DHT22;34309;47.260;2.796;2022-07-29T12:51:02;24.90;26.90
48515;DHT22;34309;47.260;2.796;2022-07-29T12:53:29;24.90;27.10
48515;DHT22;34309;47.260;2.796;2022-07-29T12:55:56;24.90;26.70
48515;DHT22;34309;47.260;2.796;2022-07-29T13:01:16;24.90;27.20
48515;DHT22;34309;47.260;2.796;2022-07-29T13:03:54;25.00;27.10
48515;DHT22;34309;47.260;2.796;2022-07-29T13:09:04;25.00;26.80
48515;DHT22;34309;47.260;2.796;2022-07-29T13:11:32;25.00;26.80
48515;DHT22;34309;47.260;2.796;2022-07-29T13:13:59;25.00;26.90
48515;DHT22;34309;47.260;2.796;2022-07-29T13:16:25;25.00;26.80
48515;DHT22;34309;47.260;2.796;2022-07-29T13:19:03;25.00;26.80
48515;DHT22;34309;47.260;2.796;2022-07-29T13:21:29;25.00;26.70
48515;DHT22;34309;47.260;2.796;2022-07-29T13:23:55;25.00;26.70
48515;DHT22;34309;47.260;2.796;2022-07-29T13:26:21;25.00;26.80
48515;DHT22;34309;47.260;2.796;2022-07-29T13:28:47;25.00;26.80
48515;DHT22;34309;47.260;2.796;2022-07-29T13:31:12;25.00;26.80
48515;DHT22;34309;47.260;2.796;2022-07-29T13:33:38;25.00;26.70
48515;DHT22;34309;47.260;2.796;2022-07-29T13:36:04;25.00;26.80
48515;DHT22;34309;47.260;2.796;2022-07-29T13:38:30;25.00;26.80
48515;DHT22;34309;47.260;2.796;2022-07-29T13:40:55;25.00;26.80
48515;DHT22;34309;47.260;2.796;2022-07-29T13:43:21;25.00;26.60
48515;DHT22;34309;47.260;2.796;2022-07-29T13:45:47;25.00;26.80
48515;DHT22;34309;47.260;2.796;2022-07-29T13:48:12;25.00;26.70
48515;DHT22;34309;47.260;2.796;2022-07-29T13:50:38;25.00;26.70
48515;DHT22;34309;47.260;2.796;2022-07-29T13:53:04;25.00;26.80
48515;DHT22;34309;47.260;2.796;2022-07-29T13:55:30;25.10;26.70
48515;DHT22;34309;47.260;2.796;2022-07-29T13:57:56;25.00;26.80
48515;DHT22;34309;47.260;2.796;2022-07-29T14:00:22;25.00;26.70
48515;DHT22;34309;47.260;2.796;2022-07-29T14:02:49;25.00;26.80
48515;DHT22;34309;47.260;2.796;2022-07-29T14:05:14;25.00;26.70
48515;DHT22;34309;47.260;2.796;2022-07-29T14:07:40;25.00;26.70
48515;DHT22;34309;47.260;2.796;2022-07-29T14:10:06;25.00;26.70
48515;DHT22;34309;47.260;2.796;2022-07-29T14:12:32;25.00;26.70
48515;DHT22;34309;47.260;2.796;2022-07-29T14:14:58;25.00;26.70
48515;DHT22;34309;47.260;2.796;2022-07-29T14:17:24;25.00;26.70
48515;DHT22;34309;47.260;2.796;2022-07-29T14:19:49;25.00;26.70
48515;DHT22;34309;47.260;2.796;2022-07-29T14:22:15;25.00;26.80
48515;DHT22;34309;47.260;2.796;2022-07-29T14:24:41;25.10;26.90
48515;DHT22;34309;47.260;2.796;2022-07-29T14:27:07;25.10;26.80
48515;DHT22;34309;47.260;2.796;2022-07-29T14:29:33;25.10;26.80
48515;DHT22;34309;47.260;2.796;2022-07-29T14:31:59;25.10;26.80
48515;DHT22;34309;47.260;2.796;2022-07-29T14:34:25;25.10;26.60
48515;DHT22;34309;47.260;2.796;2022-07-29T14:36:51;25.10;26.70
48515;DHT22;34309;47.260;2.796;2022-07-29T14:39:16;25.10;26.50
48515;DHT22;34309;47.260;2.796;2022-07-29T14:41:43;25.10;26.60
48515;DHT22;34309;47.260;2.796;2022-07-29T14:44:08;25.10;26.70
48515;DHT22;34309;47.260;2.796;2022-07-29T14:46:34;25.10;26.80
48515;DHT22;34309;47.260;2.796;2022-07-29T14:49:00;25.10;26.70
48515;DHT22;34309;47.260;2.796;2022-07-29T14:51:26;25.10;26.80
48515;DHT22;34309;47.260;2.796;2022-07-29T14:53:51;25.10;26.80
48515;DHT22;34309;47.260;2.796;2022-07-29T14:56:17;25.10;26.80
48515;DHT22;34309;47.260;2.796;2022-07-29T14:58:43;25.10;26.70
48515;DHT22;34309;47.260;2.796;2022-07-29T15:01:08;25.10;26.80
48515;DHT22;34309;47.260;2.796;2022-07-29T15:03:34;25.10;26.70
48515;DHT22;34309;47.260;2.796;2022-07-29T15:06:00;25.10;26.80
48515;DHT22;34309;47.260;2.796;2022-07-29T15:08:26;25.10;26.60
48515;DHT22;34309;47.260;2.796;2022-07-29T15:10:53;25.10;26.60
48515;DHT22;34309;47.260;2.796;2022-07-29T15:13:19;25.10;26.70
48515;DHT22;34309;47.260;2.796;2022-07-29T15:15:45;25.10;26.80
48515;DHT22;34309;47.260;2.796;2022-07-29T15:18:11;25.10;26.70
48515;DHT22;34309;47.260;2.796;2022-07-29T15:20:36;25.10;26.80
48515;DHT22;34309;47.260;2.796;2022-07-29T15:23:02;25.10;26.60
48515;DHT22;34309;47.260;2.796;2022-07-29T15:25:28;25.10;26.40
48515;DHT22;34309;47.260;2.796;2022-07-29T15:27:54;25.10;26.50
48515;DHT22;34309;47.260;2.796;2022-07-29T15:30:20;25.10;26.50
48515;DHT22;34309;47.260;2.796;2022-07-29T15:32:45;25.10;26.40
48515;DHT22;34309;47.260;2.796;2022-07-29T15:35:11;25.10;26.50
48515;DHT22;34309;47.260;2.796;2022-07-29T15:37:38;25.10;26.50
48515;DHT22;34309;47.260;2.796;2022-07-29T15:40:05;25.20;26.40
48515;DHT22;34309;47.260;2.796;2022-07-29T15:42:31;25.10;26.40
48515;DHT22;34309;47.260;2.796;2022-07-29T15:44:57;25.10;26.40
48515;DHT22;34309;47.260;2.796;2022-07-29T15:47:28;25.20;26.20
48515;DHT22;34309;47.260;2.796;2022-07-29T15:49:54;25.10;26.10
48515;DHT22;34309;47.260;2.796;2022-07-29T15:52:21;25.10;26.10
48515;DHT22;34309;47.260;2.796;2022-07-29T15:54:46;25.10;26.10
48515;DHT22;34309;47.260;2.796;2022-07-29T15:57:12;25.10;26.30
48515;DHT22;34309;47.260;2.796;2022-07-29T15:59:38;25.10;26.30
48515;DHT22;34309;47.260;2.796;2022-07-29T16:02:04;25.20;26.30
48515;DHT22;34309;47.260;2.796;2022-07-29T16:04:31;25.20;26.30
48515;DHT22;34309;47.260;2.796;2022-07-29T16:06:57;25.20;26.20
48515;DHT22;34309;47.260;2.796;2022-07-29T16:09:23;25.10;26.30
48515;DHT22;34309;47.260;2.796;2022-07-29T16:11:48;25.20;26.30